createdAt,value
2018-01-13T00:00:02.152Z,91.82
2018-01-13T00:02:30.712Z,91.32
2018-01-13T00:04:59.186Z,91.79
2018-01-13T00:07:27.797Z,91.83
2018-01-13T00:09:56.430Z,90.67
2018-01-13T00:12:25.084Z,91.30
2018-01-13T00:14:53.855Z,91.43
2018-01-13T00:17:22.684Z,89.87
2018-01-13T00:19:51.621Z,90.27
2018-01-13T00:22:20.281Z,91.07
2018-01-13T00:24:49.229Z,91.31
2018-01-13T00:27:18.061Z,90.76
2018-01-13T00:29:46.687Z,91.64
2018-01-13T00:32:15.476Z,91.33
2018-01-13T00:34:44.021Z,90.97
2018-01-13T00:37:12.591Z,91.31
2018-01-13T00:39:41.469Z,90.09
2018-01-13T00:42:10.228Z,90.51
2018-01-13T00:44:38.870Z,90.65
2018-01-13T00:47:07.418Z,91.03
2018-01-13T00:49:35.994Z,90.54
2018-01-13T00:52:04.885Z,91.11
2018-01-13T00:54:33.568Z,90.76
2018-01-13T00:57:02.230Z,90.63
2018-01-13T00:59:31.039Z,90.36
2018-01-13T01:01:59.633Z,90.87
2018-01-13T01:04:28.288Z,91.38
2018-01-13T01:06:57.037Z,91.04
2018-01-13T01:09:26.284Z,90.68
2018-01-13T01:11:55.228Z,91.30
2018-01-13T01:14:24.385Z,90.95
2018-01-13T01:16:53.212Z,90.74
2018-01-13T01:19:21.987Z,91.12
2018-01-13T01:21:50.531Z,90.67
2018-01-13T01:24:19.112Z,90.88
2018-01-13T01:26:53.948Z,90.38
2018-01-13T01:29:22.818Z,89.98
2018-01-13T01:31:51.378Z,90.29
2018-01-13T01:34:20.020Z,89.99
2018-01-13T01:36:48.816Z,90.24
2018-01-13T01:39:17.484Z,89.95
2018-01-13T01:41:46.251Z,89.56
2018-01-13T01:44:14.939Z,89.61
2018-01-13T01:46:43.501Z,89.86
2018-01-13T01:49:12.208Z,90.02
2018-01-13T01:51:40.834Z,89.25
2018-01-13T01:54:09.478Z,89.83
2018-01-13T01:56:39.597Z,89.55
2018-01-13T01:59:08.742Z,89.72
2018-01-13T02:01:37.645Z,89.71
2018-01-13T02:04:06.483Z,88.84
2018-01-13T02:06:37.351Z,89.54
2018-01-13T02:09:06.350Z,89.57
2018-01-13T02:11:34.964Z,89.00
2018-01-13T02:14:10.038Z,89.31
2018-01-13T02:16:38.952Z,89.34
2018-01-13T02:19:07.820Z,89.82
2018-01-13T02:21:36.518Z,89.24
2018-01-13T02:24:05.035Z,89.46
2018-01-13T02:26:33.718Z,89.69
2018-01-13T02:29:02.194Z,89.56
2018-01-13T02:31:31.054Z,89.21
2018-01-13T02:33:59.544Z,87.95
2018-01-13T02:36:28.042Z,89.17
2018-01-13T02:38:56.558Z,88.35
2018-01-13T02:41:25.110Z,89.27
2018-01-13T02:43:53.728Z,89.16
2018-01-13T02:46:22.731Z,88.95
2018-01-13T02:48:51.175Z,88.68
2018-01-13T02:51:19.832Z,89.00
2018-01-13T02:53:48.312Z,88.95
2018-01-13T02:56:16.895Z,88.83
2018-01-13T02:58:45.396Z,89.44
2018-01-13T03:01:14.077Z,88.68
2018-01-13T03:03:42.559Z,88.25
2018-01-13T03:06:14.138Z,88.64
2018-01-13T03:08:42.748Z,88.21
2018-01-13T03:11:11.259Z,87.57
2018-01-13T03:13:40.100Z,88.15
2018-01-13T03:16:09.135Z,87.68
2018-01-13T03:18:37.632Z,89.15
2018-01-13T03:21:06.182Z,89.22
2018-01-13T03:23:34.879Z,89.18
2018-01-13T03:26:03.407Z,88.78
2018-01-13T03:28:31.909Z,87.55
2018-01-13T03:31:00.440Z,88.72
2018-01-13T03:33:29.528Z,88.84
2018-01-13T03:35:58.452Z,88.86
2018-01-13T03:38:27.334Z,89.38
2018-01-13T03:40:56.224Z,89.51
2018-01-13T03:43:25.115Z,89.42
2018-01-13T03:45:54.219Z,89.63
2018-01-13T03:48:22.843Z,89.52
2018-01-13T03:50:51.343Z,89.29
2018-01-13T03:53:19.834Z,89.19
2018-01-13T03:55:48.423Z,88.83
2018-01-13T03:58:16.902Z,89.37
2018-01-13T04:00:45.392Z,89.62
2018-01-13T04:03:14.200Z,89.65
2018-01-13T04:05:42.863Z,89.77
2018-01-13T04:08:11.432Z,89.57
2018-01-13T04:10:40.230Z,88.86
2018-01-13T04:13:08.736Z,89.47
2018-01-13T04:15:37.255Z,89.47
2018-01-13T04:18:05.782Z,89.27
2018-01-13T04:20:34.794Z,89.62
2018-01-13T04:23:03.319Z,89.02
2018-01-13T04:25:31.821Z,89.11
2018-01-13T04:28:00.500Z,89.35
2018-01-13T04:30:29.044Z,89.40
2018-01-13T04:32:57.759Z,87.86
2018-01-13T04:35:26.306Z,87.74
2018-01-13T04:37:54.826Z,88.81
2018-01-13T04:40:23.439Z,88.54
2018-01-13T04:42:52.293Z,88.12
2018-01-13T04:45:20.953Z,88.57
2018-01-13T04:47:49.684Z,88.09
2018-01-13T04:50:18.533Z,88.31
2018-01-13T04:52:47.041Z,88.38
2018-01-13T04:55:15.682Z,88.61
2018-01-13T04:57:44.754Z,88.41
2018-01-13T05:03:19.829Z,87.58
2018-01-13T05:05:49.305Z,88.44
2018-01-13T05:08:18.097Z,87.95
2018-01-13T05:10:47.263Z,88.47
2018-01-13T05:13:16.181Z,88.39
2018-01-13T05:15:46.885Z,88.28
2018-01-13T05:18:15.923Z,88.24
2018-01-13T05:20:44.926Z,88.24
2018-01-13T05:23:13.790Z,88.01
2018-01-13T05:25:43.082Z,88.10
2018-01-13T05:28:12.210Z,88.20
2018-01-13T05:30:41.720Z,87.54
2018-01-13T05:33:10.819Z,87.56
2018-01-13T05:35:39.902Z,87.45
2018-01-13T05:38:08.802Z,87.48
2018-01-13T05:40:37.855Z,86.79
2018-01-13T05:43:06.794Z,87.62
2018-01-13T05:45:36.102Z,87.78
2018-01-13T05:48:05.179Z,87.15
2018-01-13T05:50:34.487Z,86.74
2018-01-13T05:53:03.948Z,86.94
2018-01-13T05:55:33.088Z,86.29
2018-01-13T05:58:01.889Z,86.44
2018-01-13T06:00:32.031Z,86.34
2018-01-13T06:03:01.035Z,86.82
2018-01-13T06:05:30.678Z,87.11
2018-01-13T06:07:59.329Z,86.04
2018-01-13T06:10:28.381Z,86.72
2018-01-13T06:12:57.209Z,86.63
2018-01-13T06:15:26.356Z,86.57
2018-01-13T06:17:55.828Z,86.15
2018-01-13T06:20:24.702Z,86.21
2018-01-13T06:22:54.058Z,86.09
2018-01-13T06:25:29.715Z,86.25
2018-01-13T06:27:58.795Z,85.76
2018-01-13T06:30:27.690Z,85.85
2018-01-13T06:32:56.755Z,86.16
2018-01-13T06:35:26.079Z,85.84
2018-01-13T06:37:55.157Z,85.64
2018-01-13T06:40:24.271Z,85.91
2018-01-13T06:42:53.334Z,85.26
2018-01-13T06:45:22.671Z,85.44
2018-01-13T06:47:51.766Z,85.75
2018-01-13T06:50:20.615Z,84.72
2018-01-13T06:52:49.742Z,85.10
2018-01-13T06:55:19.048Z,85.29
2018-01-13T06:57:47.870Z,85.14
2018-01-13T07:00:18.061Z,84.72
2018-01-13T07:02:47.310Z,84.97
2018-01-13T07:05:16.442Z,84.26
2018-01-13T07:07:45.465Z,84.09
2018-01-13T07:10:14.851Z,84.29
2018-01-13T07:12:43.661Z,84.58
2018-01-13T07:15:12.861Z,84.57
2018-01-13T07:17:41.787Z,84.49
2018-01-13T07:20:11.022Z,85.00
2018-01-13T07:22:40.527Z,84.42
2018-01-13T07:25:10.041Z,83.41
2018-01-13T07:27:39.944Z,83.65
2018-01-13T07:30:09.026Z,83.75
2018-01-13T07:32:37.933Z,84.19
2018-01-13T07:35:06.981Z,83.09
2018-01-13T07:37:36.305Z,82.17
2018-01-13T07:40:05.279Z,82.77
2018-01-13T07:42:35.182Z,83.06
2018-01-13T07:45:04.573Z,82.10
2018-01-13T07:47:33.421Z,81.40
2018-01-13T07:50:02.619Z,81.39
2018-01-13T07:52:32.018Z,81.95
2018-01-13T07:55:01.188Z,81.30
2018-01-13T07:57:30.388Z,81.84
2018-01-13T07:59:59.792Z,80.10
2018-01-13T08:02:32.698Z,80.82
2018-01-13T08:05:01.966Z,81.71
2018-01-13T08:07:37.178Z,81.72
2018-01-13T08:10:07.891Z,81.29
2018-01-13T08:12:37.098Z,80.36
2018-01-13T08:15:06.116Z,81.16
2018-01-13T08:17:36.813Z,80.93
2018-01-13T08:20:07.446Z,80.36
2018-01-13T08:22:38.206Z,80.55
2018-01-13T08:25:07.378Z,80.54
2018-01-13T08:27:37.150Z,80.15
2018-01-13T08:30:06.869Z,80.71
2018-01-13T08:32:36.361Z,79.28
2018-01-13T08:35:05.376Z,80.19
2018-01-13T08:37:35.859Z,80.72
2018-01-13T08:40:05.982Z,79.54
2018-01-13T08:42:35.574Z,79.87
2018-01-13T08:45:05.350Z,79.40
2018-01-13T08:47:35.699Z,79.26
2018-01-13T08:50:06.078Z,79.20
2018-01-13T08:52:35.273Z,79.69
2018-01-13T08:55:04.866Z,78.41
2018-01-13T08:57:33.900Z,78.89
2018-01-13T09:00:02.993Z,79.13
2018-01-13T09:02:32.222Z,79.36
2018-01-13T09:05:01.938Z,77.72
2018-01-13T09:07:31.739Z,78.22
2018-01-13T09:10:01.020Z,78.40
2018-01-13T09:12:29.802Z,78.32
2018-01-13T09:14:58.952Z,79.16
2018-01-13T09:17:28.138Z,77.78
2018-01-13T09:19:57.153Z,78.64
2018-01-13T09:22:27.567Z,78.69
2018-01-13T09:24:56.614Z,78.14
2018-01-13T09:27:26.734Z,78.50
2018-01-13T09:29:55.823Z,77.87
2018-01-13T09:32:25.091Z,77.84
2018-01-13T09:34:54.213Z,77.02
2018-01-13T09:37:23.315Z,77.42
2018-01-13T09:39:52.289Z,76.95
2018-01-13T09:42:21.051Z,75.95
2018-01-13T09:44:50.044Z,75.94
2018-01-13T09:47:18.995Z,75.63
2018-01-13T09:49:49.550Z,75.03
2018-01-13T09:52:18.616Z,74.82
2018-01-13T09:54:47.761Z,74.35
2018-01-13T09:57:16.902Z,74.98
2018-01-13T09:59:46.561Z,73.42
2018-01-13T10:02:15.923Z,72.25
2018-01-13T10:04:45.485Z,72.93
2018-01-13T10:07:14.493Z,73.22
2018-01-13T10:09:43.811Z,72.73
2018-01-13T10:12:12.917Z,70.99
2018-01-13T10:14:41.684Z,69.62
2018-01-13T10:17:10.583Z,66.96
2018-01-13T10:19:39.735Z,68.93
2018-01-13T10:22:08.639Z,71.35
2018-01-13T10:24:38.016Z,72.89
2018-01-13T10:27:06.870Z,73.52
2018-01-13T10:29:35.755Z,73.57
2018-01-13T10:32:04.728Z,72.64
2018-01-13T10:34:33.668Z,72.36
2018-01-13T10:37:03.026Z,72.31
2018-01-13T10:39:31.927Z,72.06
2018-01-13T10:42:01.414Z,72.14
2018-01-13T10:44:30.535Z,72.86
2018-01-13T10:47:00.234Z,71.89
2018-01-13T10:49:29.210Z,72.01
2018-01-13T10:51:58.495Z,72.08
2018-01-13T10:54:27.729Z,72.91
2018-01-13T10:56:56.631Z,71.77
2018-01-13T10:59:25.471Z,72.75
2018-01-13T11:01:55.833Z,71.59
2018-01-13T11:04:24.932Z,72.96
2018-01-13T11:06:55.255Z,72.40
2018-01-13T11:09:24.766Z,72.21
2018-01-13T11:11:54.468Z,72.34
2018-01-13T11:14:23.522Z,71.14
2018-01-13T11:16:52.881Z,72.94
2018-01-13T11:19:22.343Z,73.18
2018-01-13T11:21:51.410Z,72.67
2018-01-13T11:24:21.005Z,72.83
2018-01-13T11:26:50.143Z,72.64
2018-01-13T11:29:20.202Z,71.82
2018-01-13T11:31:49.679Z,72.29
2018-01-13T11:34:19.666Z,72.79
2018-01-13T11:36:48.626Z,72.06
2018-01-13T11:39:17.997Z,72.37
2018-01-13T11:41:47.170Z,72.09
2018-01-13T11:44:16.754Z,72.88
2018-01-13T11:46:46.691Z,72.59
2018-01-13T11:49:15.766Z,72.60
2018-01-13T11:51:44.887Z,72.81
2018-01-13T11:54:13.909Z,72.99
2018-01-13T11:56:43.305Z,71.72
2018-01-13T11:59:12.404Z,72.57
2018-01-13T12:01:45.937Z,72.42
2018-01-13T12:04:20.773Z,71.01
2018-01-13T12:06:50.460Z,72.33
2018-01-13T12:09:20.042Z,72.14
2018-01-13T12:11:49.497Z,72.37
2018-01-13T12:14:18.382Z,70.78
2018-01-13T12:16:48.044Z,71.67
2018-01-13T12:19:17.388Z,72.18
2018-01-13T12:21:46.739Z,72.15
2018-01-13T12:24:16.048Z,72.04
2018-01-13T12:26:45.976Z,72.00
2018-01-13T12:29:14.961Z,72.72
2018-01-13T12:31:44.762Z,71.83
2018-01-13T12:34:13.694Z,71.56
2018-01-13T12:36:42.926Z,71.66
2018-01-13T12:39:13.756Z,72.75
2018-01-13T12:41:45.366Z,72.30
2018-01-13T12:44:14.807Z,72.37
2018-01-13T12:46:43.873Z,71.90
2018-01-13T12:49:13.042Z,71.75
2018-01-13T12:51:43.163Z,71.31
2018-01-13T12:54:12.834Z,71.24
2018-01-13T12:56:42.140Z,71.26
2018-01-13T12:59:11.881Z,70.92
2018-01-13T13:01:43.921Z,70.21
2018-01-13T13:04:13.719Z,70.60
2018-01-13T13:06:43.066Z,69.72
2018-01-13T13:09:11.930Z,70.08
2018-01-13T13:11:41.073Z,70.35
2018-01-13T13:14:10.709Z,70.23
2018-01-13T13:16:40.155Z,70.68
2018-01-13T13:19:09.615Z,69.50
2018-01-13T13:21:38.813Z,69.85
2018-01-13T13:24:08.159Z,69.59
2018-01-13T13:26:37.089Z,68.93
2018-01-13T13:29:06.644Z,68.53
2018-01-13T13:31:35.706Z,68.67
2018-01-13T13:34:05.017Z,68.80
2018-01-13T13:36:34.558Z,69.33
2018-01-13T13:39:03.475Z,69.54
2018-01-13T13:41:33.980Z,70.13
2018-01-13T13:44:04.376Z,69.06
2018-01-13T13:46:33.809Z,67.84
2018-01-13T13:49:03.748Z,67.85
2018-01-13T13:51:33.090Z,68.29
2018-01-13T13:54:02.408Z,68.80
2018-01-13T13:56:32.078Z,69.15
2018-01-13T13:59:02.490Z,69.17
2018-01-13T14:01:39.534Z,67.98
2018-01-13T14:04:08.383Z,67.66
2018-01-13T14:06:37.719Z,68.51
2018-01-13T14:09:07.020Z,68.27
2018-01-13T14:11:37.556Z,68.74
2018-01-13T14:14:06.650Z,69.05
2018-01-13T14:16:38.150Z,68.70
2018-01-13T14:19:08.075Z,69.22
2018-01-13T14:21:37.399Z,68.56
2018-01-13T14:24:06.374Z,67.78
2018-01-13T14:26:35.802Z,68.28
2018-01-13T14:29:04.638Z,68.11
2018-01-13T14:31:33.795Z,67.69
2018-01-13T14:34:03.197Z,67.91
2018-01-13T14:36:32.285Z,68.50
2018-01-13T14:39:01.257Z,68.67
2018-01-13T14:42:03.359Z,67.93
2018-01-13T14:44:32.648Z,68.38
2018-01-13T14:47:02.044Z,68.67
2018-01-13T14:49:31.335Z,67.99
2018-01-13T14:52:00.533Z,67.09
2018-01-13T14:54:30.150Z,66.93
2018-01-13T14:56:59.371Z,67.87
2018-01-13T14:59:29.719Z,68.10
2018-01-13T15:02:05.548Z,67.89
2018-01-13T15:04:36.375Z,67.97
2018-01-13T15:07:05.624Z,67.64
2018-01-13T15:09:35.123Z,66.24
2018-01-13T15:12:04.584Z,67.24
2018-01-13T15:14:33.532Z,66.29
2018-01-13T15:17:02.761Z,67.33
2018-01-13T15:19:36.722Z,67.57
2018-01-13T15:22:07.330Z,67.09
2018-01-13T15:24:36.454Z,67.32
2018-01-13T15:27:06.633Z,67.57
2018-01-13T15:29:36.111Z,67.21
2018-01-13T15:32:06.807Z,67.10
2018-01-13T15:34:35.846Z,67.58
2018-01-13T15:37:04.911Z,67.53
2018-01-13T15:39:34.035Z,67.01
2018-01-13T15:42:03.767Z,67.80
2018-01-13T15:44:33.791Z,67.39
2018-01-13T15:47:04.171Z,67.43
2018-01-13T15:49:33.505Z,67.68
2018-01-13T15:52:03.216Z,67.54
2018-01-13T15:54:32.977Z,68.17
2018-01-13T15:57:01.757Z,67.16
2018-01-13T15:59:30.879Z,67.47
2018-01-13T16:02:02.158Z,67.17
2018-01-13T16:04:32.171Z,67.92
2018-01-13T16:07:01.382Z,67.05
2018-01-13T16:09:30.512Z,67.33
2018-01-13T16:12:00.658Z,67.34
2018-01-13T16:14:29.793Z,67.74
2018-01-13T16:16:59.384Z,68.02
2018-01-13T16:19:29.783Z,66.79
2018-01-13T16:21:59.326Z,66.84
2018-01-13T16:24:29.057Z,67.90
2018-01-13T16:26:58.479Z,68.20
2018-01-13T16:29:27.610Z,68.01
2018-01-13T16:31:57.376Z,68.27
2018-01-13T16:34:27.550Z,67.50
2018-01-13T16:36:58.132Z,68.58
2018-01-13T16:39:27.087Z,68.48
2018-01-13T16:41:56.148Z,68.06
2018-01-13T16:44:26.905Z,67.85
2018-01-13T16:46:56.124Z,68.26
2018-01-13T16:49:25.922Z,68.58
2018-01-13T16:51:56.731Z,68.57
2018-01-13T16:54:27.666Z,69.45
2018-01-13T16:56:57.299Z,69.73
2018-01-13T16:59:27.039Z,69.44
2018-01-13T17:01:59.273Z,69.60
2018-01-13T17:04:33.352Z,68.74
2018-01-13T17:07:02.898Z,69.10
2018-01-13T17:09:32.192Z,69.55
2018-01-13T17:12:02.119Z,69.42
2018-01-13T17:14:31.013Z,69.88
2018-01-13T17:17:00.299Z,70.45
2018-01-13T17:19:29.975Z,70.39
2018-01-13T17:21:59.496Z,69.24
2018-01-13T17:24:28.702Z,69.92
2018-01-13T17:26:58.326Z,70.37
2018-01-13T17:29:28.414Z,69.98
2018-01-13T17:31:58.162Z,70.42
2018-01-13T17:34:30.449Z,71.20
2018-01-13T17:37:00.811Z,71.25
2018-01-13T17:39:30.282Z,71.44
2018-01-13T17:42:00.407Z,70.51
2018-01-13T17:44:32.315Z,70.29
2018-01-13T17:47:02.387Z,70.68
2018-01-13T17:49:31.736Z,70.27
2018-01-13T17:52:01.226Z,69.41
2018-01-13T17:54:31.166Z,70.36
2018-01-13T17:57:01.136Z,69.36
2018-01-13T17:59:29.996Z,69.95
2018-01-13T18:02:02.590Z,69.84
2018-01-13T18:04:32.251Z,70.32
2018-01-13T18:07:01.739Z,68.95
2018-01-13T18:09:30.745Z,69.23
2018-01-13T18:12:00.451Z,69.13
2018-01-13T18:14:31.550Z,70.00
2018-01-13T18:17:03.610Z,69.91
2018-01-13T18:19:33.069Z,70.13
2018-01-13T18:22:03.149Z,70.01
2018-01-13T18:24:32.839Z,69.45
2018-01-13T18:27:02.624Z,69.11
2018-01-13T18:29:32.158Z,69.35
2018-01-13T18:32:01.481Z,68.94
2018-01-13T18:34:30.445Z,68.47
2018-01-13T18:37:00.892Z,68.57
2018-01-13T18:39:30.561Z,70.09
2018-01-13T18:42:00.230Z,69.00
2018-01-13T18:44:30.363Z,69.48
2018-01-13T18:47:00.842Z,69.28
2018-01-13T18:49:30.694Z,68.33
2018-01-13T18:52:01.821Z,69.17
2018-01-13T18:54:32.150Z,69.48
2018-01-13T18:57:02.563Z,69.86
2018-01-13T18:59:32.066Z,69.05
2018-01-13T19:02:06.207Z,69.09
2018-01-13T19:04:38.840Z,68.94
2018-01-13T19:07:09.201Z,68.85
2018-01-13T19:09:39.343Z,68.50
2018-01-13T19:12:10.510Z,69.37
2018-01-13T19:14:43.995Z,68.73
2018-01-13T19:17:14.632Z,70.03
2018-01-13T19:19:44.904Z,69.64
2018-01-13T19:22:13.914Z,69.49
2018-01-13T19:24:44.255Z,69.07
2018-01-13T19:27:15.261Z,69.02
2018-01-13T19:29:45.201Z,68.89
2018-01-13T19:32:15.144Z,69.29
2018-01-13T19:34:45.655Z,69.40
2018-01-13T19:37:16.054Z,69.44
2018-01-13T19:39:47.464Z,69.93
2018-01-13T19:42:18.568Z,69.60
2018-01-13T19:44:51.082Z,69.13
2018-01-13T19:47:21.905Z,69.73
2018-01-13T19:49:53.106Z,68.92
2018-01-13T19:52:24.216Z,69.90
2018-01-13T19:54:54.740Z,69.89
2018-01-13T19:57:26.537Z,70.43
2018-01-13T19:59:58.227Z,70.62
2018-01-13T20:02:30.829Z,70.08
2018-01-13T20:05:05.011Z,70.22
2018-01-13T20:07:35.534Z,70.30
2018-01-13T20:10:07.459Z,70.02
2018-01-13T20:12:41.148Z,69.80
2018-01-13T20:15:14.828Z,69.72
2018-01-13T20:17:48.218Z,70.14
2018-01-13T20:20:21.681Z,69.90
2018-01-13T20:22:52.598Z,69.95
2018-01-13T20:25:23.836Z,69.97
2018-01-13T20:27:54.596Z,69.66
2018-01-13T20:30:25.342Z,69.50
2018-01-13T20:32:56.739Z,69.90
2018-01-13T20:35:28.367Z,70.43
2018-01-13T20:38:00.557Z,70.11
2018-01-13T20:40:32.771Z,69.72
2018-01-13T20:43:04.087Z,68.90
2018-01-13T20:45:39.299Z,70.29
2018-01-13T20:55:00.397Z,70.06
2018-01-13T20:57:30.713Z,69.79
2018-01-13T21:00:00.092Z,69.84
2018-01-13T21:02:35.036Z,69.20
2018-01-13T21:05:06.065Z,69.29
2018-01-13T21:07:38.720Z,70.04
2018-01-13T21:10:09.549Z,69.65
2018-01-13T21:12:43.013Z,70.02
2018-01-13T21:15:13.406Z,69.86
2018-01-13T21:17:43.982Z,68.92
2018-01-13T21:20:14.793Z,69.21
2018-01-13T21:22:45.375Z,68.82
2018-01-13T21:25:16.887Z,69.32
2018-01-13T21:27:46.830Z,69.06
2018-01-13T21:30:16.880Z,68.37
2018-01-13T21:32:50.836Z,69.32
2018-01-13T21:35:26.789Z,69.09
2018-01-13T21:38:01.172Z,69.40
2018-01-13T21:40:39.124Z,69.17
2018-01-13T21:43:11.135Z,69.07
2018-01-13T21:45:46.713Z,69.09
2018-01-13T21:48:21.578Z,69.57
2018-01-13T21:50:55.118Z,69.03
2018-01-13T21:53:30.093Z,68.49
2018-01-13T21:56:01.547Z,68.87
2018-01-13T21:58:32.729Z,68.57
2018-01-13T22:01:06.723Z,68.82
2018-01-13T22:03:39.609Z,69.09
2018-01-13T22:06:12.721Z,68.55
2018-01-13T22:08:42.931Z,69.43
2018-01-13T22:11:12.124Z,67.87
2018-01-13T22:13:42.872Z,68.86
2018-01-13T22:16:15.219Z,68.52
2018-01-13T22:18:45.672Z,68.29
2018-01-13T22:21:15.131Z,68.62
2018-01-13T22:23:46.872Z,68.35
2018-01-13T22:26:18.617Z,68.43
2018-01-13T22:28:50.035Z,68.66
2018-01-13T22:31:23.031Z,68.74
2018-01-13T22:36:47.793Z,68.47
2018-01-13T22:39:24.588Z,69.05
2018-01-13T22:41:54.961Z,68.90
2018-01-13T22:44:24.154Z,68.25
2018-01-13T22:46:55.888Z,68.63
2018-01-13T22:49:25.719Z,68.73
2018-01-13T22:51:55.327Z,68.25
2018-01-13T22:54:25.813Z,68.73
2018-01-13T22:56:58.425Z,68.57
2018-01-13T22:59:35.399Z,67.82
2018-01-13T23:02:08.018Z,68.33
2018-01-13T23:04:41.519Z,67.99
2018-01-13T23:07:14.429Z,68.60
2018-01-13T23:09:46.267Z,68.27
2018-01-13T23:12:17.627Z,67.88
2018-01-13T23:14:46.954Z,68.42
2018-01-13T23:17:16.531Z,69.01
2018-01-13T23:19:47.301Z,68.87
2018-01-13T23:22:16.224Z,68.90
2018-01-13T23:24:47.403Z,68.45
2018-01-13T23:27:22.766Z,69.04
2018-01-13T23:29:54.800Z,69.13
2018-01-13T23:32:25.994Z,69.07
2018-01-13T23:34:55.602Z,69.18
2018-01-13T23:37:25.205Z,69.45
2018-01-13T23:39:54.194Z,68.82
2018-01-13T23:42:23.537Z,68.45
2018-01-13T23:44:53.084Z,69.12
2018-01-13T23:47:21.937Z,69.60
2018-01-13T23:49:53.019Z,68.95
2018-01-13T23:52:25.308Z,69.16
2018-01-13T23:54:55.307Z,68.83
2018-01-13T23:57:24.371Z,68.90
2018-01-13T23:59:53.496Z,69.48
